createdAt,value
2022-09-05T00:01:28.192Z,84.94
2022-09-05T00:04:24.325Z,85.41
2022-09-05T00:07:00.880Z,84.89
2022-09-05T00:09:58.896Z,84.53
2022-09-05T00:12:29.367Z,85.42
2022-09-05T00:15:17.647Z,85.55
2022-09-05T00:20:48.061Z,85.04
2022-09-05T00:24:19.519Z,85.11
2022-09-05T00:24:34.755Z,85.28
2022-09-05T00:27:00.388Z,85.33
2022-09-05T00:31:07.044Z,85.60
2022-09-05T00:33:16.868Z,85.38
2022-09-05T00:36:10.470Z,85.29
2022-09-05T00:38:42.639Z,85.87
2022-09-05T00:41:13.860Z,86.30
2022-09-05T00:43:45.647Z,86.09
2022-09-05T00:46:17.713Z,85.73
2022-09-05T00:48:51.952Z,85.65
2022-09-05T00:51:34.962Z,85.36
2022-09-05T00:54:41.385Z,85.46
2022-09-05T00:57:35.779Z,86.20
2022-09-05T01:00:17.240Z,86.24
2022-09-05T01:03:19.244Z,86.27
2022-09-05T01:06:01.032Z,86.54
2022-09-05T01:08:52.779Z,86.41
2022-09-05T01:11:37.825Z,86.25
2022-09-05T01:14:18.220Z,86.15
2022-09-05T01:17:13.728Z,85.75
2022-09-05T01:20:04.714Z,86.59
2022-09-05T01:23:08.345Z,86.99
2022-09-05T01:26:00.385Z,86.84
2022-09-05T01:29:13.851Z,87.24
2022-09-05T01:31:32.472Z,86.33
2022-09-05T01:34:10.676Z,86.90
2022-09-05T01:36:59.539Z,86.59
2022-09-05T01:40:16.189Z,86.98
2022-09-05T01:42:39.789Z,86.95
2022-09-05T01:45:17.145Z,87.42
2022-09-05T01:47:55.539Z,87.46
2022-09-05T01:50:40.519Z,86.96
2022-09-05T01:53:25.495Z,86.13
2022-09-05T01:56:14.955Z,85.84
2022-09-05T01:58:56.770Z,86.42
2022-09-05T02:01:33.480Z,86.10
2022-09-05T02:04:31.005Z,86.04
2022-09-05T02:07:30.395Z,86.41
2022-09-05T02:10:16.215Z,86.54
2022-09-05T02:12:56.783Z,87.14
2022-09-05T02:15:42.921Z,87.32
2022-09-05T02:18:33.699Z,87.61
2022-09-05T02:21:04.486Z,88.60
2022-09-05T02:23:42.627Z,88.93
2022-09-05T02:26:18.586Z,88.34
2022-09-05T02:28:56.735Z,88.39
2022-09-05T02:31:32.971Z,89.00
2022-09-05T02:34:09.431Z,89.09
2022-09-05T02:36:44.675Z,88.00
2022-09-05T02:45:00.381Z,88.20
2022-09-05T02:45:20.766Z,88.54
2022-09-05T02:45:31.027Z,89.06
2022-09-05T02:48:15.567Z,90.07
2022-09-05T02:57:25.983Z,90.19
2022-09-05T02:57:34.409Z,89.95
2022-09-05T02:58:04.691Z,89.75
2022-09-05T03:00:02.252Z,90.20
2022-09-05T03:02:38.055Z,90.15
2022-09-05T03:05:13.119Z,90.73
2022-09-05T03:08:12.697Z,90.64
2022-09-05T03:11:12.964Z,90.64
2022-09-05T03:14:12.214Z,90.25
2022-09-05T03:17:14.989Z,89.95
2022-09-05T03:20:13.250Z,90.05
2022-09-05T03:23:17.453Z,89.92
2022-09-05T03:26:34.371Z,90.09
2022-09-05T03:29:35.646Z,89.66
2022-09-05T03:32:48.807Z,90.10
2022-09-05T03:36:05.631Z,90.57
2022-09-05T03:39:12.131Z,90.58
2022-09-05T03:42:05.657Z,91.03
2022-09-05T03:45:01.111Z,90.91
2022-09-05T03:48:02.314Z,91.19
2022-09-05T03:57:05.593Z,91.07
2022-09-05T03:57:11.909Z,91.22
2022-09-05T03:57:38.826Z,90.66
2022-09-05T04:00:20.905Z,90.78
2022-09-05T04:08:10.687Z,90.27
2022-09-05T04:08:25.373Z,91.02
2022-09-05T04:08:57.068Z,90.29
2022-09-05T04:11:35.643Z,90.76
2022-09-05T04:14:08.510Z,90.85
2022-09-05T04:16:50.240Z,90.67
2022-09-05T04:19:26.554Z,90.77
2022-09-05T04:22:06.569Z,90.77
2022-09-05T04:24:44.066Z,91.00
2022-09-05T04:27:27.987Z,90.78
2022-09-05T04:30:04.950Z,90.59
2022-09-05T04:32:58.527Z,90.68
2022-09-05T04:35:38.704Z,90.51
2022-09-05T04:38:13.086Z,90.49
2022-09-05T04:40:45.778Z,90.63
2022-09-05T04:43:27.600Z,91.22
2022-09-05T04:46:02.735Z,90.80
2022-09-05T04:48:38.000Z,90.53
2022-09-05T04:51:11.684Z,89.96
2022-09-05T04:53:57.984Z,90.15
2022-09-05T04:56:31.602Z,90.51
2022-09-05T05:01:08.273Z,90.93
2022-09-05T05:06:10.845Z,90.61
2022-09-05T05:06:17.754Z,90.40
2022-09-05T05:07:46.445Z,91.42
2022-09-05T05:12:04.185Z,90.99
2022-09-05T05:17:56.088Z,91.78
2022-09-05T05:18:15.637Z,92.08
2022-09-05T05:19:18.647Z,91.65
2022-09-05T05:21:51.859Z,91.92
2022-09-05T05:24:25.019Z,92.02
2022-09-05T05:26:59.963Z,92.88
2022-09-05T05:29:39.272Z,93.09
2022-09-05T05:32:08.699Z,93.41
2022-09-05T05:34:44.294Z,93.04
2022-09-05T05:37:19.567Z,93.08
2022-09-05T05:39:52.631Z,93.62
2022-09-05T05:42:24.400Z,92.80
2022-09-05T05:44:54.683Z,93.47
2022-09-05T05:47:31.424Z,93.35
2022-09-05T05:50:11.445Z,93.26
2022-09-05T05:52:51.166Z,93.23
2022-09-05T05:55:53.586Z,92.17
2022-09-05T05:58:35.372Z,92.86
2022-09-05T06:01:41.292Z,93.03
2022-09-05T06:04:44.863Z,93.16
2022-09-05T06:07:27.444Z,93.43
2022-09-05T06:14:24.838Z,93.45
2022-09-05T06:14:55.255Z,94.19
2022-09-05T06:16:59.414Z,93.75
2022-09-05T06:21:34.568Z,94.15
2022-09-05T06:23:39.411Z,94.40
2022-09-05T06:26:42.730Z,94.23
2022-09-05T06:29:34.501Z,93.59
2022-09-05T06:32:25.672Z,94.17
2022-09-05T06:35:17.752Z,93.30
2022-09-05T06:37:54.438Z,93.54
2022-09-05T06:40:33.047Z,93.50
2022-09-05T06:43:14.410Z,94.36
2022-09-05T06:46:03.707Z,92.55
2022-09-05T06:48:47.028Z,92.19
2022-09-05T06:52:17.899Z,91.71
2022-09-05T06:55:18.294Z,91.49
2022-09-05T06:58:10.636Z,90.26
2022-09-05T07:00:47.672Z,90.54
2022-09-05T07:03:28.649Z,89.35
2022-09-05T07:06:05.792Z,88.90
2022-09-05T07:08:48.086Z,89.14
2022-09-05T07:11:20.820Z,89.16
2022-09-05T07:13:58.282Z,90.39
2022-09-05T07:16:39.034Z,90.40
2022-09-05T07:19:24.395Z,89.15
2022-09-05T07:22:29.544Z,86.61
2022-09-05T07:25:08.793Z,85.83
2022-09-05T07:28:26.148Z,85.38
2022-09-05T07:30:34.648Z,84.44
2022-09-05T07:33:05.255Z,84.74
2022-09-05T07:35:42.185Z,84.45
2022-09-05T07:38:15.011Z,84.42
2022-09-05T07:40:51.805Z,83.97
2022-09-05T07:43:24.538Z,83.65
2022-09-05T07:46:06.359Z,82.75
2022-09-05T07:48:38.637Z,83.05
2022-09-05T07:54:30.026Z,82.46
2022-09-05T07:56:58.644Z,81.60
2022-09-05T07:59:41.387Z,81.39
2022-09-05T08:02:12.597Z,80.81
2022-09-05T08:04:42.482Z,79.93
2022-09-05T08:07:45.859Z,79.02
2022-09-05T08:10:10.675Z,79.18
2022-09-05T08:13:22.691Z,78.96
2022-09-05T08:16:10.154Z,77.94
2022-09-05T08:18:30.721Z,77.12
2022-09-05T08:21:04.384Z,77.54
2022-09-05T08:23:47.360Z,76.90
2022-09-05T08:26:21.873Z,76.88
2022-09-05T08:28:57.555Z,76.22
2022-09-05T08:31:35.621Z,75.97
2022-09-05T08:34:18.523Z,74.19
2022-09-05T08:37:01.796Z,73.33
2022-09-05T08:39:33.017Z,73.35
2022-09-05T08:42:14.338Z,71.82
2022-09-05T08:46:40.696Z,71.65
2022-09-05T08:47:49.206Z,71.08
2022-09-05T08:50:33.855Z,72.17
2022-09-05T08:53:28.408Z,72.37
2022-09-05T08:56:10.127Z,69.78
2022-09-05T08:59:27.263Z,70.01
2022-09-05T09:02:45.228Z,68.32
2022-09-05T09:05:01.813Z,68.61
2022-09-05T09:07:50.673Z,68.56
2022-09-05T09:10:32.512Z,66.83
2022-09-05T09:13:24.543Z,66.01
2022-09-05T09:16:04.610Z,65.82
2022-09-05T09:18:42.403Z,67.77
2022-09-05T09:21:32.368Z,63.02
2022-09-05T09:24:14.055Z,62.70
2022-09-05T09:27:01.070Z,62.74
2022-09-05T09:29:34.313Z,61.60
2022-09-05T09:32:07.512Z,61.65
2022-09-05T09:35:21.338Z,60.80
2022-09-05T09:38:13.619Z,60.93
2022-09-05T09:41:14.615Z,60.66
2022-09-05T09:44:07.575Z,59.72
2022-09-05T09:46:43.418Z,59.27
2022-09-05T09:49:30.580Z,59.90
2022-09-05T09:52:28.821Z,60.13
2022-09-05T09:55:40.941Z,59.31
2022-09-05T09:58:40.190Z,57.44
2022-09-05T10:01:36.209Z,56.63
2022-09-05T10:10:36.515Z,54.44
2022-09-05T10:10:46.165Z,55.64
2022-09-05T10:14:47.940Z,50.94
2022-09-05T10:17:47.735Z,48.24
2022-09-05T10:20:31.112Z,49.27
2022-09-05T10:23:26.290Z,46.06
2022-09-05T10:26:30.832Z,44.01
2022-09-05T10:29:35.064Z,44.05
2022-09-05T10:33:58.358Z,44.00
2022-09-05T10:35:14.947Z,43.34
2022-09-05T10:37:49.543Z,40.90
2022-09-05T10:40:23.066Z,41.90
2022-09-05T10:43:00.677Z,41.55
2022-09-05T10:45:38.456Z,40.80
2022-09-05T10:48:17.265Z,40.51
2022-09-05T10:50:50.572Z,40.60
2022-09-05T10:53:29.771Z,40.84
2022-09-05T10:56:14.274Z,39.53
2022-09-05T11:02:19.453Z,39.54
2022-09-05T11:02:27.747Z,39.25
2022-09-05T11:04:50.175Z,37.91
2022-09-05T11:07:29.316Z,37.87
2022-09-05T11:10:05.435Z,38.45
2022-09-05T11:12:58.459Z,38.12
2022-09-05T11:15:34.360Z,37.48
2022-09-05T11:18:04.921Z,36.67
2022-09-05T11:21:04.962Z,35.48
2022-09-05T11:23:47.090Z,35.38
2022-09-05T11:26:34.854Z,35.84
2022-09-05T11:29:08.001Z,36.30
2022-09-05T11:32:30.349Z,35.28
2022-09-05T11:39:52.702Z,34.07
2022-09-05T11:40:03.913Z,32.86
2022-09-05T11:41:33.755Z,34.39
2022-09-05T11:44:27.388Z,33.38
2022-09-05T11:47:40.955Z,33.29
2022-09-05T11:50:44.690Z,32.64
2022-09-05T11:53:52.080Z,33.08
2022-09-05T11:57:20.068Z,31.44
2022-09-05T12:00:33.469Z,32.00
2022-09-05T12:03:56.924Z,31.35
2022-09-05T12:06:47.992Z,31.78
2022-09-05T12:09:29.059Z,30.61
2022-09-05T12:12:34.199Z,31.17
2022-09-05T12:15:26.593Z,31.13
2022-09-05T12:18:19.509Z,30.12
2022-09-05T12:20:57.307Z,30.07
2022-09-05T12:24:08.305Z,28.88
2022-09-05T12:27:40.623Z,28.36
2022-09-05T12:29:36.121Z,29.01
2022-09-05T12:33:32.621Z,29.54
2022-09-05T12:36:10.757Z,30.04
2022-09-05T12:40:43.382Z,29.22
2022-09-05T12:41:43.150Z,29.22
2022-09-05T12:44:41.030Z,30.95
2022-09-05T12:47:22.817Z,30.22
2022-09-05T12:50:14.467Z,29.70
2022-09-05T12:52:46.917Z,28.86
2022-09-05T12:55:25.970Z,29.31
2022-09-05T13:02:58.786Z,29.39
2022-09-05T13:03:09.580Z,29.40
2022-09-05T13:04:16.576Z,28.21
2022-09-05T13:07:00.160Z,28.90
2022-09-05T13:09:39.362Z,28.03
2022-09-05T13:14:54.907Z,27.12
2022-09-05T13:15:23.655Z,27.27
2022-09-05T13:18:00.230Z,27.94
2022-09-05T13:20:38.337Z,27.23
2022-09-05T13:23:19.963Z,28.31
2022-09-05T13:25:57.923Z,27.80
2022-09-05T13:28:30.304Z,28.29
2022-09-05T13:37:53.664Z,28.85
2022-09-05T13:38:02.438Z,30.15
2022-09-05T13:38:12.700Z,29.94
2022-09-05T13:40:00.043Z,28.90
2022-09-05T13:42:32.856Z,29.83
2022-09-05T13:45:02.859Z,29.07
2022-09-05T13:47:54.280Z,29.51
2022-09-05T13:50:26.401Z,29.23
2022-09-05T13:52:59.541Z,28.74
2022-09-05T13:55:45.173Z,28.55
2022-09-05T13:58:20.369Z,28.32
2022-09-05T14:01:32.542Z,29.34
2022-09-05T14:08:02.088Z,29.17
2022-09-05T14:11:03.228Z,29.78
2022-09-05T14:13:44.114Z,30.53
2022-09-05T14:16:18.190Z,29.83
2022-09-05T14:19:02.680Z,29.60
2022-09-05T14:21:34.306Z,29.41
2022-09-05T14:24:10.081Z,30.26
2022-09-05T14:26:46.227Z,29.37
2022-09-05T14:29:20.340Z,29.59
2022-09-05T14:36:42.243Z,30.39
2022-09-05T14:37:39.023Z,29.55
2022-09-05T14:38:09.608Z,30.04
2022-09-05T14:41:30.649Z,29.47
2022-09-05T14:44:17.319Z,29.85
2022-09-05T14:47:02.665Z,30.11
2022-09-05T14:50:04.158Z,29.96
2022-09-05T14:52:35.523Z,29.99
2022-09-05T15:02:50.941Z,30.58
2022-09-05T15:02:51.203Z,30.80
2022-09-05T15:06:37.906Z,31.21
2022-09-05T15:12:14.330Z,31.51
2022-09-05T15:12:26.244Z,31.36
2022-09-05T15:14:58.464Z,31.83
2022-09-05T15:17:27.949Z,30.96
2022-09-05T15:20:06.702Z,32.26
2022-09-05T15:22:37.316Z,32.48
2022-09-05T15:25:17.097Z,32.01
2022-09-05T15:27:46.579Z,32.82
2022-09-05T15:30:20.911Z,33.07
2022-09-05T15:32:50.700Z,33.54
2022-09-05T15:35:37.940Z,33.17
2022-09-05T15:38:25.278Z,33.61
2022-09-05T15:41:17.262Z,32.38
2022-09-05T15:43:52.878Z,33.26
2022-09-05T15:46:29.483Z,33.34
2022-09-05T15:49:02.490Z,34.47
2022-09-05T15:51:44.506Z,35.68
2022-09-05T15:54:35.968Z,36.18
2022-09-05T15:57:17.863Z,36.63
2022-09-05T15:59:49.813Z,36.70
2022-09-05T16:02:23.012Z,35.68
2022-09-05T16:10:30.876Z,36.42
2022-09-05T16:10:37.632Z,35.03
2022-09-05T16:11:12.116Z,35.68
2022-09-05T16:13:36.809Z,36.36
2022-09-05T16:23:20.163Z,35.25
2022-09-05T16:23:26.208Z,35.61
2022-09-05T16:23:28.411Z,35.87
2022-09-05T16:25:03.518Z,36.15
2022-09-05T16:27:45.461Z,37.09
2022-09-05T16:30:25.273Z,38.31
2022-09-05T16:32:59.269Z,38.46
2022-09-05T16:35:27.891Z,38.30
2022-09-05T16:38:10.355Z,39.28
2022-09-05T16:40:43.591Z,39.25
2022-09-05T16:43:20.694Z,39.29
2022-09-05T16:46:03.525Z,39.71
2022-09-05T16:48:40.262Z,40.64
2022-09-05T16:51:34.807Z,40.89
2022-09-05T16:54:13.681Z,40.09
2022-09-05T16:56:47.406Z,40.61
2022-09-05T16:59:21.250Z,40.94
2022-09-05T17:02:07.904Z,42.66
2022-09-05T17:05:03.525Z,41.61
2022-09-05T17:07:48.090Z,42.17
2022-09-05T17:10:19.108Z,41.57
2022-09-05T17:12:52.115Z,42.16
2022-09-05T17:15:23.528Z,42.51
2022-09-05T17:18:19.064Z,42.24
2022-09-05T17:20:50.311Z,41.41
2022-09-05T17:29:16.046Z,42.65
2022-09-05T17:29:43.101Z,43.55
2022-09-05T17:29:48.957Z,44.56
2022-09-05T17:32:04.486Z,44.32
2022-09-05T17:35:17.260Z,42.42
2022-09-05T17:38:12.088Z,44.22
2022-09-05T17:41:10.111Z,45.10
2022-09-05T17:43:40.051Z,45.30
2022-09-05T17:46:29.102Z,44.42
2022-09-05T17:49:06.094Z,45.00
2022-09-05T17:52:18.158Z,45.08
2022-09-05T17:54:50.010Z,44.79
2022-09-05T17:57:45.862Z,43.48
2022-09-05T18:01:04.347Z,43.32
2022-09-05T18:04:17.082Z,46.42
2022-09-05T18:06:59.965Z,45.48
2022-09-05T18:13:31.575Z,46.49
2022-09-05T18:16:12.029Z,46.49
2022-09-05T18:19:33.468Z,45.34
2022-09-05T18:21:49.548Z,46.29
2022-09-05T18:24:24.922Z,46.30
2022-09-05T18:27:47.468Z,46.72
2022-09-05T18:30:06.897Z,46.92
2022-09-05T18:32:45.254Z,47.04
2022-09-05T18:35:36.280Z,47.30
2022-09-05T18:38:31.109Z,48.61
2022-09-05T18:41:18.209Z,47.82
2022-09-05T18:44:13.580Z,47.64
2022-09-05T18:46:51.543Z,47.97
2022-09-05T18:50:24.155Z,50.40
2022-09-05T18:52:23.367Z,52.30
2022-09-05T18:56:10.481Z,53.89
2022-09-05T18:57:49.679Z,53.73
2022-09-05T19:00:35.254Z,55.87
2022-09-05T19:03:18.519Z,55.50
2022-09-05T19:05:50.797Z,56.38
2022-09-05T19:08:28.975Z,56.29
2022-09-05T19:11:27.517Z,56.83
2022-09-05T19:14:25.414Z,56.46
2022-09-05T19:16:50.657Z,55.99
2022-09-05T19:19:24.620Z,56.90
2022-09-05T19:22:32.004Z,56.70
2022-09-05T19:24:45.922Z,63.03
2022-09-05T19:30:48.951Z,63.97
2022-09-05T19:36:49.646Z,66.52
2022-09-05T19:37:02.252Z,65.68
2022-09-05T19:37:13.757Z,65.36
2022-09-05T19:40:15.717Z,65.28
2022-09-05T19:47:31.321Z,65.50
2022-09-05T19:47:41.043Z,65.35
2022-09-05T19:47:56.567Z,65.96
2022-09-05T19:50:21.146Z,65.32
2022-09-05T19:52:53.104Z,64.13
2022-09-05T19:55:23.634Z,63.74
2022-09-05T19:58:19.153Z,62.57
2022-09-05T20:00:50.361Z,63.75
2022-09-05T20:03:34.572Z,62.80
2022-09-05T20:06:24.756Z,62.53
2022-09-05T20:09:10.869Z,62.34
2022-09-05T20:11:46.354Z,61.70
2022-09-05T20:14:20.666Z,61.72
2022-09-05T20:16:50.734Z,61.57
2022-09-05T20:19:28.793Z,61.60
2022-09-05T20:21:59.825Z,61.04
2022-09-05T20:24:49.052Z,61.34
2022-09-05T20:27:17.355Z,60.96
2022-09-05T20:29:55.614Z,61.01
2022-09-05T20:32:39.698Z,60.53
2022-09-05T20:39:08.626Z,60.43
2022-09-05T20:43:18.295Z,60.09
2022-09-05T20:43:19.749Z,60.52
2022-09-05T20:43:57.901Z,60.83
2022-09-05T20:50:04.359Z,61.37
2022-09-05T20:54:06.557Z,61.06
2022-09-05T20:54:18.233Z,61.64
2022-09-05T20:55:38.633Z,60.53
2022-09-05T20:58:11.154Z,58.60
2022-09-05T21:01:15.708Z,59.63
2022-09-05T21:03:36.623Z,60.44
2022-09-05T21:06:22.555Z,60.57
2022-09-05T21:08:52.463Z,59.74
2022-09-05T21:11:30.172Z,59.78
2022-09-05T21:14:02.731Z,59.83
2022-09-05T21:16:33.602Z,60.99
2022-09-05T21:19:01.495Z,61.35
2022-09-05T21:21:32.294Z,61.13
2022-09-05T21:24:15.811Z,60.73
2022-09-05T21:26:47.626Z,59.10
2022-09-05T21:29:17.580Z,60.97
2022-09-05T21:31:50.811Z,60.83
2022-09-05T21:34:27.987Z,61.34
2022-09-05T21:37:06.777Z,60.28
2022-09-05T21:39:39.987Z,60.25
2022-09-05T21:43:21.676Z,60.36
2022-09-05T21:47:37.389Z,59.49
2022-09-05T21:47:53.077Z,59.77
2022-09-05T21:50:31.286Z,60.85
2022-09-05T21:53:45.267Z,60.36
2022-09-05T21:59:18.106Z,60.02
2022-09-05T21:59:18.748Z,59.57
2022-09-05T22:01:51.951Z,60.32
2022-09-05T22:04:19.011Z,60.14
2022-09-05T22:06:48.393Z,60.32
2022-09-05T22:09:18.813Z,60.62
2022-09-05T22:11:50.382Z,59.89
2022-09-05T22:14:19.101Z,60.03
2022-09-05T22:16:50.127Z,60.09
2022-09-05T22:19:22.680Z,60.14
2022-09-05T22:21:53.523Z,60.67
2022-09-05T22:24:23.909Z,59.59
2022-09-05T22:27:12.179Z,60.63
2022-09-05T22:29:41.247Z,60.93
2022-09-05T22:32:09.276Z,61.18
2022-09-05T22:34:37.146Z,60.90
2022-09-05T22:37:05.069Z,61.69
2022-09-05T22:39:36.950Z,60.84
2022-09-05T22:42:10.124Z,60.98
2022-09-05T22:44:39.824Z,60.29
2022-09-05T22:47:08.595Z,60.11
2022-09-05T22:49:37.324Z,60.01
2022-09-05T22:52:06.527Z,60.12
2022-09-05T22:54:36.055Z,59.52
2022-09-05T22:57:04.424Z,58.63
2022-09-05T22:59:32.712Z,57.78
2022-09-05T23:02:00.566Z,58.96
2022-09-05T23:04:28.969Z,58.85
2022-09-05T23:06:56.927Z,57.75
2022-09-05T23:09:24.796Z,57.79
2022-09-05T23:11:53.931Z,57.99
2022-09-05T23:14:21.734Z,57.43
2022-09-05T23:16:49.522Z,57.94
2022-09-05T23:19:17.322Z,57.71
2022-09-05T23:21:45.121Z,57.74
2022-09-05T23:24:12.979Z,57.91
2022-09-05T23:26:40.813Z,57.65
2022-09-05T23:29:09.980Z,57.49
2022-09-05T23:31:37.819Z,57.58
2022-09-05T23:34:05.627Z,56.96
2022-09-05T23:36:33.557Z,56.83
2022-09-05T23:39:01.415Z,57.19
2022-09-05T23:41:29.374Z,57.13
2022-09-05T23:43:57.331Z,57.07
2022-09-05T23:46:26.613Z,56.23
2022-09-05T23:48:54.459Z,55.23
2022-09-05T23:51:22.284Z,55.86
2022-09-05T23:53:50.078Z,55.68
2022-09-05T23:56:17.887Z,56.83
2022-09-05T23:58:45.719Z,56.66
